createdAt,value
2022-09-16T10:29:15.997Z,45.00
2022-09-16T10:31:44.309Z,43.40
2022-09-16T10:34:17.050Z,44.20
2022-09-16T10:36:45.133Z,44.60
2022-09-16T10:39:22.802Z,46.20
2022-09-16T10:42:00.023Z,47.40
2022-09-16T10:44:30.786Z,48.30
2022-09-16T10:47:02.569Z,49.20
2022-09-16T10:49:36.515Z,49.80
2022-09-16T10:52:18.880Z,49.90
2022-09-16T10:54:56.635Z,49.70
2022-09-16T10:57:31.644Z,49.70
2022-09-16T11:00:15.066Z,49.30
2022-09-16T11:02:52.495Z,48.00
2022-09-16T11:05:26.093Z,48.20
2022-09-16T11:07:58.438Z,48.30
2022-09-16T11:10:29.641Z,48.40
2022-09-16T11:13:12.657Z,47.70
2022-09-16T11:15:48.327Z,47.20
2022-09-16T11:18:23.031Z,47.30
2022-09-16T11:21:02.500Z,47.00
2022-09-16T11:23:39.282Z,46.80
2022-09-16T11:26:11.833Z,46.70
2022-09-16T11:28:47.647Z,46.20
2022-09-16T11:31:20.612Z,46.00
2022-09-16T11:33:50.664Z,45.50
2022-09-16T11:36:24.310Z,45.00
2022-09-16T11:38:58.603Z,44.50
2022-09-16T11:41:30.911Z,44.30
2022-09-16T11:44:16.469Z,43.90
2022-09-16T11:46:49.992Z,43.20
2022-09-16T11:49:24.416Z,43.10
2022-09-16T11:51:58.375Z,42.50
2022-09-16T11:54:34.195Z,42.30
2022-09-16T11:57:04.561Z,41.30
2022-09-16T11:59:36.210Z,40.50
2022-09-16T12:02:13.889Z,39.60
2022-09-16T12:04:45.056Z,39.70
2022-09-16T12:07:15.195Z,39.90
2022-09-16T12:09:44.861Z,40.20
2022-09-16T12:12:14.550Z,40.80
2022-09-16T12:14:43.722Z,41.30
2022-09-16T12:17:15.740Z,41.70
2022-09-16T12:19:44.982Z,42.20
2022-09-16T12:22:17.110Z,42.10
2022-09-16T12:24:48.113Z,42.10
2022-09-16T12:27:20.975Z,42.20
2022-09-16T12:29:50.973Z,42.40
2022-09-16T12:32:22.761Z,42.70
2022-09-16T12:34:55.453Z,43.00
2022-09-16T12:37:30.894Z,43.20
2022-09-16T12:39:58.711Z,43.20
2022-09-16T12:42:46.593Z,43.20
2022-09-16T12:45:21.826Z,42.80
2022-09-16T12:48:03.538Z,42.70
2022-09-16T12:50:49.880Z,42.90
2022-09-16T12:53:29.066Z,43.40
2022-09-16T12:56:01.917Z,43.30
2022-09-16T12:58:50.808Z,42.50
2022-09-16T13:01:21.404Z,41.00
2022-09-16T13:03:53.010Z,41.40
2022-09-16T13:06:23.613Z,40.50
2022-09-16T13:08:52.190Z,40.50
2022-09-16T13:12:16.648Z,39.80
2022-09-16T13:14:21.076Z,38.50
2022-09-16T13:16:53.568Z,39.00
2022-09-16T13:19:39.041Z,38.40
2022-09-16T13:22:15.946Z,37.90
2022-09-16T13:24:45.959Z,36.80
2022-09-16T13:27:27.498Z,37.10
2022-09-16T13:30:07.551Z,37.00
2022-09-16T13:32:39.148Z,37.80
2022-09-16T13:35:22.029Z,38.30
2022-09-16T13:37:51.783Z,38.80
2022-09-16T13:40:21.281Z,38.60
2022-09-16T13:42:49.319Z,38.20
2022-09-16T13:45:35.153Z,38.70
2022-09-16T13:48:07.016Z,39.50
2022-09-16T13:50:35.583Z,40.10
2022-09-16T13:53:11.442Z,39.80
2022-09-16T13:55:41.192Z,39.80
2022-09-16T13:58:14.336Z,39.20
2022-09-16T14:00:47.028Z,38.30
2022-09-16T14:03:25.134Z,37.60
2022-09-16T14:06:01.125Z,37.40
2022-09-16T14:08:34.550Z,37.40
2022-09-16T14:11:03.059Z,37.80
2022-09-16T14:13:35.868Z,38.50
2022-09-16T14:16:03.794Z,39.50
2022-09-16T14:18:32.509Z,39.90
2022-09-16T14:21:03.169Z,40.40
2022-09-16T14:23:33.570Z,40.00
2022-09-16T14:26:10.376Z,39.90
2022-09-16T14:28:39.404Z,39.70
2022-09-16T14:31:08.476Z,39.70
2022-09-16T14:33:37.551Z,39.50
2022-09-16T14:36:10.780Z,38.50
2022-09-16T14:38:46.113Z,37.50
2022-09-16T14:41:20.090Z,36.60
2022-09-16T14:43:47.837Z,36.70
2022-09-16T14:46:17.180Z,36.10
2022-09-16T14:48:45.332Z,34.80
2022-09-16T14:51:22.739Z,34.70
2022-09-16T14:54:15.242Z,34.70
2022-09-16T14:56:55.195Z,35.30
2022-09-16T14:59:26.553Z,35.60
2022-09-16T15:01:59.102Z,36.10
2022-09-16T15:04:36.582Z,36.30
2022-09-16T15:07:11.799Z,36.70
2022-09-16T15:09:44.414Z,36.50
2022-09-16T15:12:20.421Z,36.70
2022-09-16T15:14:49.814Z,37.00
2022-09-16T15:17:22.297Z,36.90
2022-09-16T15:19:52.955Z,37.20
2022-09-16T15:22:21.387Z,37.60
2022-09-16T15:24:52.755Z,37.70
2022-09-16T15:27:32.272Z,37.90
2022-09-16T15:30:05.716Z,38.50
2022-09-16T15:32:43.674Z,38.60
2022-09-16T15:35:13.358Z,39.00
2022-09-16T15:37:41.092Z,39.20
2022-09-16T15:40:20.756Z,39.40
2022-09-16T15:42:49.342Z,39.50
2022-09-16T15:45:19.828Z,39.70
2022-09-16T15:47:53.005Z,39.90
2022-09-16T15:50:22.016Z,40.10
2022-09-16T15:52:53.296Z,40.20
2022-09-16T15:55:35.043Z,40.00
2022-09-16T15:58:04.960Z,39.80
2022-09-16T16:00:53.715Z,39.80
2022-09-16T16:03:21.599Z,39.90
2022-09-16T16:05:51.656Z,40.10
2022-09-16T16:08:34.312Z,40.20
2022-09-16T16:11:09.007Z,40.40
2022-09-16T16:13:36.766Z,40.50
2022-09-16T16:16:05.123Z,40.20
2022-09-16T16:18:34.095Z,40.50
2022-09-16T16:21:05.689Z,40.30
2022-09-16T16:23:33.636Z,40.50
2022-09-16T16:26:01.496Z,40.80
2022-09-16T16:28:30.978Z,41.20
2022-09-16T16:31:08.670Z,41.40
2022-09-16T16:33:36.460Z,41.50
2022-09-16T16:36:05.308Z,41.10
2022-09-16T16:38:33.029Z,40.50
2022-09-16T16:41:00.763Z,40.50
2022-09-16T16:43:31.236Z,40.60
2022-09-16T16:45:59.057Z,40.90
2022-09-16T16:48:27.978Z,41.00
2022-09-16T16:50:56.485Z,41.10
2022-09-16T16:53:24.283Z,41.50
2022-09-16T16:55:52.107Z,41.90
2022-09-16T16:58:20.136Z,42.20
2022-09-16T17:00:49.554Z,42.40
2022-09-16T17:03:17.384Z,42.60
2022-09-16T17:05:45.184Z,42.70
2022-09-16T17:08:12.971Z,42.70
2022-09-16T17:10:41.548Z,43.10
2022-09-16T17:13:09.468Z,43.40
2022-09-16T17:15:37.303Z,43.90
2022-09-16T17:18:06.725Z,44.70
2022-09-16T17:20:34.461Z,45.40
2022-09-16T17:23:02.348Z,46.10
2022-09-16T17:25:30.256Z,46.90
2022-09-16T17:27:58.120Z,47.40
2022-09-16T17:30:25.921Z,47.70
2022-09-16T17:32:53.659Z,48.00
2022-09-16T17:35:22.756Z,48.30
2022-09-16T17:37:50.497Z,48.70
2022-09-16T17:40:18.310Z,48.70
2022-09-16T17:42:49.583Z,48.90
2022-09-16T17:45:17.505Z,49.10
2022-09-16T17:47:45.325Z,49.20
2022-09-16T17:50:14.001Z,49.30
2022-09-16T17:52:43.279Z,49.30
2022-09-16T17:55:11.039Z,49.50
